Time;durP1;ratioP1;P1;durP2;ratioP2;P2;SDS_P1;SDS_P2;PMS_P1;PMS_P2;Temp;Humidity;BMP_temperature;BMP_pressure;BME280_temperature;BME280_humidity;BME280_pressure;Samples;Min_cycle;Max_cycle;Signal;HPM_P1;HPM_P2
2023/10/14 00:01:04;;;;;;;16.07;11.70;;;18.10;99.90;;;;;;5079294;28;20459;-59
2023/10/14 00:03:33;;;;;;;19.23;9.80;;;18.10;99.90;;;;;;5079043;28;20453;-61
2023/10/14 00:06:02;;;;;;;15.47;10.10;;;18.00;99.90;;;;;;5078306;28;20464;-60
2023/10/14 00:08:32;;;;;;;16.27;10.40;;;18.00;99.90;;;;;;5079052;28;20552;-66
2023/10/14 00:11:04;;;;;;;17.30;10.50;;;18.10;99.90;;;;;;5079709;28;20940;-60
2023/10/14 00:13:40;;;;;;;15.20;9.80;;;18.10;99.90;;;;;;5078854;28;20476;-63
2023/10/14 00:16:12;;;;;;;17.47;11.00;;;18.20;99.90;;;;;;5079299;28;20893;-61
2023/10/14 00:18:47;;;;;;;12.93;9.77;;;18.30;99.90;;;;;;5079276;28;20435;-62
2023/10/14 00:21:14;;;;;;;13.47;9.17;;;18.30;1.00;;;;;;5079268;28;20483;-64
2023/10/14 00:23:43;;;;;;;11.63;9.73;;;18.40;99.90;;;;;;5078662;28;20457;-67
2023/10/14 00:26:16;;;;;;;13.83;9.60;;;18.50;99.90;;;;;;5079378;28;20788;-65
2023/10/14 00:28:45;;;;;;;13.47;9.07;;;18.50;1.00;;;;;;5079123;28;20885;-65
2023/10/14 00:31:13;;;;;;;13.00;10.50;;;18.60;1.00;;;;;;5079059;28;20555;-68
2023/10/14 00:33:40;;;;;;;12.70;9.00;;;18.60;1.00;;;;;;5078757;28;20483;-67
2023/10/14 00:36:11;;;;;;;16.53;10.90;;;18.50;1.00;;;;;;5078380;28;20462;-61
2023/10/14 00:38:40;;;;;;;15.40;10.97;;;18.50;1.00;;;;;;5078974;28;20508;-69
2023/10/14 00:41:09;;;;;;;12.30;9.80;;;18.30;99.90;;;;;;5078861;28;20462;-63
2023/10/14 00:43:36;;;;;;;13.13;10.70;;;18.10;99.90;;;;;;5078508;28;20481;-63
2023/10/14 00:46:13;;;;;;;14.00;10.83;;;17.80;1.00;;;;;;5078267;28;20861;-63
2023/10/14 00:48:44;;;;;;;14.03;12.03;;;17.60;1.00;;;;;;5078683;28;20446;-65
2023/10/14 00:51:13;;;;;;;13.77;10.93;;;17.40;1.00;;;;;;5078909;28;20501;-60
2023/10/14 00:53:51;;;;;;;12.93;10.73;;;17.20;96.30;;;;;;5078116;28;20894;-72
2023/10/14 00:56:27;;;;;;;18.20;10.97;;;17.20;99.90;;;;;;5078198;28;20819;-65
2023/10/14 00:58:58;;;;;;;16.20;11.90;;;17.20;99.90;;;;;;5078392;28;20461;-65
2023/10/14 01:01:28;;;;;;;16.83;10.40;;;17.10;99.90;;;;;;5078155;28;20551;-63
2023/10/14 01:04:03;;;;;;;16.67;10.67;;;17.00;99.90;;;;;;5077863;28;20493;-64
2023/10/14 01:06:39;;;;;;;11.67;10.50;;;17.00;99.90;;;;;;5078125;28;20518;-61
2023/10/14 01:09:13;;;;;;;15.37;9.27;;;17.00;99.90;;;;;;5077812;28;20485;-65
2023/10/14 01:11:42;;;;;;;13.67;9.90;;;16.90;99.90;;;;;;5077720;28;20824;-66
2023/10/14 01:14:14;;;;;;;14.73;9.67;;;16.90;99.90;;;;;;5077926;28;20485;-68
2023/10/14 01:16:41;;;;;;;15.43;10.50;;;16.90;99.90;;;;;;5078241;28;20467;-66
2023/10/14 01:19:11;;;;;;;13.80;10.53;;;16.90;99.90;;;;;;5077825;28;20491;-62
2023/10/14 01:21:41;;;;;;;16.77;10.83;;;16.80;1.00;;;;;;5077460;28;20552;-61
2023/10/14 01:24:17;;;;;;;18.77;11.03;;;16.90;99.90;;;;;;5077870;28;20461;-63
2023/10/14 01:27:01;;;;;;;15.13;10.60;;;16.80;99.90;;;;;;5078198;28;20881;-61
2023/10/14 01:29:31;;;;;;;12.97;10.07;;;16.80;99.90;;;;;;5076337;28;20818;-63
2023/10/14 01:32:32;;;;;;;16.17;9.53;;;16.80;99.90;;;;;;5077612;28;20519;-61
2023/10/14 01:35:00;;;;;;;15.33;11.40;;;16.90;99.90;;;;;;5063572;28;20472;-62
2023/10/14 01:37:34;;;;;;;10.60;9.40;;;16.90;99.90;;;;;;5077323;28;20457;-67
2023/10/14 01:40:17;;;;;;;10.83;8.30;;;16.90;99.90;;;;;;5077243;28;20454;-60
2023/10/14 01:42:46;;;;;;;14.40;8.50;;;16.80;87.80;;;;;;5077537;28;20453;-62
2023/10/14 01:45:15;;;;;;;8.60;7.33;;;16.80;99.90;;;;;;5077457;28;20507;-61
2023/10/14 01:47:44;;;;;;;9.93;7.97;;;16.80;99.90;;;;;;5077209;28;20461;-63
2023/10/14 01:50:12;;;;;;;8.50;7.40;;;16.70;99.90;;;;;;5077750;28;20515;-68
2023/10/14 01:52:41;;;;;;;13.40;8.00;;;16.70;99.90;;;;;;5077541;28;20525;-67
2023/10/14 01:55:10;;;;;;;11.83;7.30;;;16.60;99.90;;;;;;5077703;28;20507;-65
2023/10/14 01:57:37;;;;;;;12.07;7.17;;;16.50;1.00;;;;;;5077144;28;20511;-65
2023/10/14 02:00:23;;;;;;;12.73;8.50;;;16.40;41.50;;;;;;5077045;28;20516;-67
2023/10/14 02:03:00;;;;;;;23.73;9.53;;;16.30;99.90;;;;;;5077067;28;20463;-63
2023/10/14 02:05:29;;;;;;;12.43;7.30;;;16.20;99.90;;;;;;5077035;28;20471;-65
2023/10/14 02:07:56;;;;;;;7.53;5.57;;;16.00;99.90;;;;;;5075783;28;20535;-63
2023/10/14 02:10:27;;;;;;;6.53;5.30;;;15.90;99.90;;;;;;5076812;28;20535;-62
2023/10/14 02:12:56;;;;;;;3.73;3.20;;;15.80;99.90;;;;;;5077211;28;20490;-64
2023/10/14 02:15:25;;;;;;;3.80;2.40;;;15.60;99.90;;;;;;5077594;28;20462;-64
2023/10/14 02:17:52;;;;;;;3.73;2.17;;;15.30;99.90;;;;;;5077205;28;20909;-61
2023/10/14 02:20:28;;;;;;;2.40;1.70;;;14.80;99.90;;;;;;5076853;28;20476;-61
2023/10/14 02:22:57;;;;;;;2.70;1.77;;;14.60;99.90;;;;;;5077595;28;20456;-63
2023/10/14 02:25:27;;;;;;;5.70;2.23;;;14.50;99.90;;;;;;5076842;28;20457;-62
2023/10/14 02:27:55;;;;;;;3.40;2.17;;;14.50;99.90;;;;;;5076815;28;20873;-61
2023/10/14 02:30:22;;;;;;;3.50;2.10;;;14.40;99.90;;;;;;5076722;28;20467;-62
2023/10/14 02:32:49;;;;;;;3.67;2.43;;;14.50;99.90;;;;;;5077143;28;20511;-61
2023/10/14 02:35:16;;;;;;;3.33;2.77;;;14.40;99.90;;;;;;5076978;28;20461;-61
2023/10/14 02:37:43;;;;;;;4.80;3.30;;;14.40;99.90;;;;;;5076823;28;20822;-61
2023/10/14 02:40:23;;;;;;;4.13;3.40;;;14.20;99.90;;;;;;5076638;28;20468;-61
2023/10/14 02:42:57;;;;;;;4.10;3.70;;;14.00;99.90;;;;;;5077272;28;20882;-60
2023/10/14 02:45:26;;;;;;;4.63;3.67;;;14.00;99.90;;;;;;5076973;28;20538;-61
2023/10/14 02:48:01;;;;;;;5.67;4.73;;;14.00;99.90;;;;;;5076478;28;20491;-60
2023/10/14 02:50:28;;;;;;;4.30;3.90;;;13.90;99.90;;;;;;5076947;28;20538;-60
2023/10/14 02:53:01;;;;;;;5.40;4.90;;;13.80;99.90;;;;;;5078441;28;20909;-61
2023/10/14 02:55:50;;;;;;;6.60;4.57;;;13.70;99.90;;;;;;5080912;28;20495;-61
2023/10/14 02:58:20;;;;;;;4.43;3.63;;;13.70;99.90;;;;;;5080342;28;20453;-63
2023/10/14 03:00:50;;;;;;;4.40;4.00;;;13.60;99.90;;;;;;5080846;28;20461;-61
2023/10/14 03:03:21;;;;;;;4.23;3.83;;;13.40;99.90;;;;;;5080601;28;20530;-61
2023/10/14 03:05:52;;;;;;;6.57;4.07;;;13.40;99.90;;;;;;5080243;28;20476;-60
2023/10/14 03:08:20;;;;;;;5.77;4.50;;;13.30;99.90;;;;;;5080246;28;20911;-61
2023/10/14 03:10:54;;;;;;;5.60;4.33;;;13.40;99.90;;;;;;5079654;28;20467;-61
2023/10/14 03:13:23;;;;;;;5.00;4.20;;;13.40;99.90;;;;;;5080242;28;20774;-61
2023/10/14 03:15:53;;;;;;;5.80;5.20;;;13.50;99.90;;;;;;5079841;28;20464;-61
2023/10/14 03:18:20;;;;;;;6.10;5.50;;;13.40;99.90;;;;;;5080375;28;20436;-61
2023/10/14 03:21:00;;;;;;;7.20;5.77;;;13.40;99.90;;;;;;5080093;28;20464;-60
2023/10/14 03:23:28;;;;;;;7.93;7.17;;;13.40;99.90;;;;;;5079798;28;20457;-60
2023/10/14 03:26:05;;;;;;;7.60;6.90;;;13.50;99.90;;;;;;5080202;28;20719;-61
2023/10/14 03:28:37;;;;;;;9.00;8.20;;;13.50;99.90;;;;;;5080156;28;20461;-60
2023/10/14 03:31:08;;;;;;;9.00;8.10;;;13.40;99.90;;;;;;5080175;28;20822;-61
2023/10/14 03:33:42;;;;;;;9.00;8.13;;;13.50;99.90;;;;;;5079840;28;20468;-61
2023/10/14 03:36:15;;;;;;;9.57;8.17;;;13.50;99.90;;;;;;5079852;28;20920;-60
2023/10/14 03:38:46;;;;;;;5.00;4.30;;;13.60;99.90;;;;;;5080301;28;20461;-61
2023/10/14 03:41:18;;;;;;;6.10;4.50;;;13.50;99.90;;;;;;5079282;28;20788;-64
2023/10/14 03:43:50;;;;;;;2.93;2.63;;;13.50;99.90;;;;;;5079651;28;20793;-63
2023/10/14 03:46:23;;;;;;;5.47;2.93;;;13.00;99.90;;;;;;5079450;28;20531;-62
2023/10/14 03:48:54;;;;;;;2.93;2.30;;;12.80;99.90;;;;;;5080190;28;20603;-64
2023/10/14 03:51:24;;;;;;;3.83;2.37;;;12.70;99.90;;;;;;5080142;28;20469;-63
2023/10/14 03:53:52;;;;;;;5.27;2.70;;;12.50;99.90;;;;;;5079418;28;20875;-61
2023/10/14 03:56:25;;;;;;;4.37;2.30;;;12.30;99.90;;;;;;5079513;28;20530;-63
2023/10/14 03:58:57;;;;;;;7.40;2.77;;;12.00;99.90;;;;;;5079839;28;20467;-62
2023/10/14 04:01:28;;;;;;;6.23;3.03;;;12.10;99.90;;;;;;5079933;28;20881;-63
2023/10/14 04:03:55;;;;;;;3.60;1.97;;;12.00;99.90;;;;;;5079108;28;20460;-62
2023/10/14 04:06:23;;;;;;;5.23;2.37;;;12.00;99.90;;;;;;5079579;28;20793;-63
2023/10/14 04:08:52;;;;;;;5.80;2.90;;;11.90;99.90;;;;;;5079389;28;20496;-61
2023/10/14 04:11:25;;;;;;;6.73;3.00;;;11.90;99.90;;;;;;5078722;28;20511;-64
2023/10/14 04:14:02;;;;;;;6.73;4.00;;;11.60;99.90;;;;;;5078743;28;20528;-62
2023/10/14 04:16:47;;;;;;;10.93;3.90;;;11.40;99.90;;;;;;5079285;28;20488;-62
2023/10/14 04:19:22;;;;;;;8.47;3.80;;;11.40;99.90;;;;;;5079175;28;20564;-65
2023/10/14 04:21:58;;;;;;;7.80;3.67;;;11.30;99.90;;;;;;5078652;28;20465;-62
2023/10/14 04:24:42;;;;;;;7.40;3.20;;;11.40;99.90;;;;;;5078979;28;20461;-61
2023/10/14 04:30:03;;;;;;;7.40;3.80;;;11.50;99.90;;;;;;5078398;28;20437;-61
2023/10/14 04:32:42;;;;;;;6.60;3.37;;;11.50;99.90;;;;;;5078972;28;20438;-60
2023/10/14 04:35:12;;;;;;;8.70;3.77;;;11.60;99.90;;;;;;5078778;28;20804;-61
2023/10/14 04:37:51;;;;;;;12.37;4.77;;;11.60;99.90;;;;;;5078656;28;20534;-62
2023/10/14 04:40:35;;;;;;;9.33;3.93;;;11.70;99.90;;;;;;5078375;28;20468;-61
2023/10/14 04:43:06;;;;;;;7.50;3.77;;;11.80;99.90;;;;;;5078226;28;20511;-61
2023/10/14 04:45:35;;;;;;;8.53;4.10;;;11.80;99.90;;;;;;5078226;28;20436;-61
2023/10/14 04:48:05;;;;;;;18.83;4.90;;;11.70;99.90;;;;;;5078368;28;20936;-61
2023/10/14 04:50:33;;;;;;;12.93;4.70;;;11.80;99.90;;;;;;5078392;28;20491;-61
2023/10/14 04:53:00;;;;;;;11.37;4.17;;;11.70;99.90;;;;;;5078402;28;20783;-61
2023/10/14 04:55:32;;;;;;;10.30;4.07;;;11.80;99.90;;;;;;5077746;28;20750;-61
2023/10/14 04:58:14;;;;;;;7.20;4.37;;;11.70;99.90;;;;;;5077010;28;20491;-61
2023/10/14 05:00:45;;;;;;;10.17;3.83;;;11.70;1.00;;;;;;5076993;28;20461;-61
2023/10/14 05:03:13;;;;;;;8.40;4.30;;;11.70;1.00;;;;;;5077457;28;20461;-61
2023/10/14 05:05:43;;;;;;;8.30;3.00;;;11.60;1.00;;;;;;5077260;28;20522;-62
2023/10/14 05:08:15;;;;;;;10.37;3.70;;;11.60;1.00;;;;;;5077248;28;20461;-62
2023/10/14 05:10:43;;;;;;;7.50;3.50;;;11.50;1.00;;;;;;5037430;28;20451;-61
2023/10/14 05:13:12;;;;;;;10.70;3.53;;;11.50;1.00;;;;;;5036682;28;20498;-62
2023/10/14 05:15:42;;;;;;;12.47;4.13;;;11.40;1.00;;;;;;5036875;28;20481;-62
2023/10/14 05:18:15;;;;;;;12.10;3.60;;;11.40;3.80;;;;;;5038169;28;20528;-61
2023/10/14 05:20:56;;;;;;;9.07;3.50;;;11.40;1.00;;;;;;5038157;28;20448;-61
2023/10/14 05:23:30;;;;;;;13.47;4.00;;;11.30;1.00;;;;;;5037456;28;20462;-62
2023/10/14 05:25:58;;;;;;;9.50;3.33;;;11.30;4.10;;;;;;5036613;28;20778;-62
2023/10/14 05:28:29;;;;;;;6.27;2.97;;;11.30;99.90;;;;;;5036137;28;20463;-63
2023/10/14 05:31:00;;;;;;;14.17;3.57;;;11.30;99.90;;;;;;5037229;28;20880;-61
2023/10/14 05:33:28;;;;;;;10.63;3.57;;;11.30;99.90;;;;;;5036712;28;20833;-61
2023/10/14 05:35:57;;;;;;;9.70;3.60;;;11.30;99.90;;;;;;5036654;28;20888;-61
2023/10/14 05:38:25;;;;;;;10.20;4.03;;;11.30;99.90;;;;;;5037410;28;20455;-61
2023/10/14 05:40:55;;;;;;;18.43;4.23;;;11.20;99.90;;;;;;5037459;28;20562;-61
2023/10/14 05:43:23;;;;;;;11.53;3.90;;;11.30;99.90;;;;;;5038032;28;20801;-61
2023/10/14 05:45:52;;;;;;;15.07;4.40;;;11.20;99.90;;;;;;5037501;28;20462;-61
2023/10/14 05:48:26;;;;;;;9.30;4.27;;;11.20;99.90;;;;;;5037504;28;20451;-61
2023/10/14 05:50:55;;;;;;;10.80;4.77;;;11.10;99.90;;;;;;5037817;28;20483;-60
2023/10/14 05:53:22;;;;;;;15.30;4.60;;;11.10;99.90;;;;;;5037312;28;20491;-61
2023/10/14 05:55:58;;;;;;;16.00;5.53;;;11.10;99.90;;;;;;5036911;28;20467;-61
2023/10/14 05:58:28;;;;;;;11.23;4.77;;;11.10;99.90;;;;;;5037447;28;20458;-61
2023/10/14 06:00:56;;;;;;;12.53;5.13;;;11.10;99.90;;;;;;5037195;28;20869;-61
2023/10/14 06:03:24;;;;;;;11.03;5.20;;;11.00;99.90;;;;;;5037489;28;20886;-61
2023/10/14 06:05:52;;;;;;;14.17;4.70;;;11.00;99.90;;;;;;5036905;28;20477;-61
2023/10/14 06:08:19;;;;;;;10.20;4.40;;;11.10;99.90;;;;;;5037487;28;20454;-61
2023/10/14 06:10:47;;;;;;;11.10;4.80;;;11.10;99.90;;;;;;5077072;28;20436;-61
2023/10/14 06:13:15;;;;;;;18.90;5.93;;;11.10;99.90;;;;;;5077106;28;20515;-60
2023/10/14 06:15:44;;;;;;;9.40;4.77;;;11.10;99.90;;;;;;5077309;28;20457;-64
2023/10/14 06:18:13;;;;;;;9.80;3.50;;;11.20;99.90;;;;;;5077079;28;20534;-64
2023/10/14 06:20:42;;;;;;;16.40;4.50;;;11.30;99.90;;;;;;5077159;28;20461;-64
2023/10/14 06:23:11;;;;;;;7.67;4.43;;;11.20;99.90;;;;;;5076819;28;20489;-63
2023/10/14 06:25:38;;;;;;;12.83;4.70;;;11.20;99.90;;;;;;5076730;28;20461;-63
2023/10/14 06:28:07;;;;;;;14.40;4.60;;;11.30;99.90;;;;;;5080325;28;20460;-63
2023/10/14 06:30:34;;;;;;;11.23;4.00;;;11.20;99.90;;;;;;5081194;28;20471;-64
2023/10/14 06:33:04;;;;;;;12.75;3.90;;;11.20;99.90;;;;;;5081353;28;20547;-64
2023/10/14 06:35:32;;;;;;;10.87;4.70;;;11.20;99.90;;;;;;5080842;28;20770;-63
2023/10/14 06:38:04;;;;;;;12.63;4.17;;;11.30;99.90;;;;;;5079946;28;20528;-62
2023/10/14 06:40:35;;;;;;;11.90;4.07;;;11.20;99.90;;;;;;5079294;28;20555;-64
2023/10/14 06:43:06;;;;;;;13.37;4.50;;;11.20;99.90;;;;;;5079460;28;20890;-63
2023/10/14 06:45:34;;;;;;;13.10;4.17;;;11.20;99.90;;;;;;5080063;28;20461;-63
2023/10/14 06:48:03;;;;;;;10.77;3.73;;;11.10;99.90;;;;;;5080091;28;20561;-64
2023/10/14 06:50:31;;;;;;;9.13;3.77;;;11.10;99.90;;;;;;5080715;28;20754;-63
2023/10/14 06:52:59;;;;;;;14.43;3.70;;;11.10;99.90;;;;;;5080813;28;20436;-63
2023/10/14 06:55:37;;;;;;;12.07;4.27;;;11.10;99.90;;;;;;5080005;28;20493;-65
2023/10/14 06:58:08;;;;;;;9.70;4.07;;;11.10;99.90;;;;;;5080358;28;20501;-64
2023/10/14 07:00:37;;;;;;;11.03;4.20;;;11.10;99.90;;;;;;5080160;28;20794;-63
2023/10/14 07:03:07;;;;;;;17.10;4.87;;;11.10;99.90;;;;;;5080360;28;20555;-63
2023/10/14 07:05:43;;;;;;;10.70;4.30;;;11.00;99.90;;;;;;5078552;28;20463;-65
2023/10/14 07:08:11;;;;;;;10.60;4.33;;;11.00;99.90;;;;;;5078533;28;20572;-63
2023/10/14 07:10:40;;;;;;;14.10;4.53;;;11.10;99.90;;;;;;5078800;28;20507;-63
2023/10/14 07:13:08;;;;;;;13.03;4.40;;;11.00;99.90;;;;;;5078698;28;20847;-65
2023/10/14 07:15:37;;;;;;;8.17;3.03;;;11.00;99.90;;;;;;5078128;28;20497;-62
2023/10/14 07:18:05;;;;;;;7.67;4.03;;;11.10;93.70;;;;;;5078436;28;20457;-65
2023/10/14 07:20:33;;;;;;;13.27;4.47;;;11.10;99.90;;;;;;5080056;28;20443;-63
2023/10/14 07:23:02;;;;;;;20.67;4.13;;;11.10;41.90;;;;;;5079906;28;20598;-64
2023/10/14 07:25:34;;;;;;;9.63;4.23;;;11.20;11.10;;;;;;5079585;28;20504;-62
2023/10/14 07:28:07;;;;;;;10.53;3.97;;;11.20;1.00;;;;;;5080214;28;20453;-67
2023/10/14 07:30:35;;;;;;;10.77;4.70;;;11.20;1.00;;;;;;5078870;28;20929;-62
2023/10/14 07:33:06;;;;;;;11.00;3.80;;;11.30;1.00;;;;;;5078548;28;20531;-65
2023/10/14 07:35:35;;;;;;;12.00;5.30;;;11.40;99.90;;;;;;5078166;28;20497;-64
2023/10/14 07:38:02;;;;;;;12.37;4.23;;;11.50;99.90;;;;;;5077668;28;20433;-64
2023/10/14 07:40:31;;;;;;;16.67;5.10;;;11.50;99.90;;;;;;5078567;28;20547;-63
2023/10/14 07:43:05;;;;;;;10.57;4.40;;;11.60;52.30;;;;;;5079168;28;20461;-63
2023/10/14 07:45:35;;;;;;;14.57;4.47;;;11.60;92.00;;;;;;5077651;28;20461;-63
2023/10/14 07:48:08;;;;;;;14.10;4.10;;;11.70;1.00;;;;;;5077734;28;20461;-63
2023/10/14 07:50:37;;;;;;;13.30;4.70;;;11.70;1.00;;;;;;5078276;28;20461;-65
2023/10/14 07:53:12;;;;;;;11.10;3.63;;;11.60;1.00;;;;;;5078599;28;20461;-67
2023/10/14 07:55:40;;;;;;;15.90;4.57;;;11.60;1.00;;;;;;5078170;28;20500;-63
2023/10/14 07:58:10;;;;;;;12.57;3.80;;;11.60;1.00;;;;;;5078257;28;20551;-63
2023/10/14 08:00:40;;;;;;;13.47;3.73;;;11.50;1.00;;;;;;5079545;28;20457;-64
2023/10/14 08:03:09;;;;;;;16.20;4.50;;;11.60;99.90;;;;;;5079006;28;20461;-66
2023/10/14 08:05:38;;;;;;;10.70;3.90;;;11.80;1.00;;;;;;5079650;28;20726;-65
2023/10/14 08:08:09;;;;;;;11.10;4.50;;;12.00;1.00;;;;;;5079257;28;20789;-64
2023/10/14 08:10:36;;;;;;;8.50;3.80;;;12.20;99.90;;;;;;5079065;28;20509;-64
2023/10/14 08:13:05;;;;;;;11.60;3.60;;;12.30;99.90;;;;;;5079221;28;20812;-65
2023/10/14 08:15:34;;;;;;;11.83;4.30;;;12.40;99.90;;;;;;5079259;28;20550;-67
2023/10/14 08:18:05;;;;;;;9.60;4.17;;;12.50;99.90;;;;;;5078586;28;20462;-65
2023/10/14 08:20:33;;;;;;;14.00;4.90;;;12.60;42.00;;;;;;5079326;28;20467;-64
2023/10/14 08:23:01;;;;;;;10.60;3.30;;;12.60;79.00;;;;;;5078374;28;20519;-66
2023/10/14 08:25:30;;;;;;;14.40;4.43;;;12.60;1.00;;;;;;5079033;28;20547;-66
2023/10/14 08:28:00;;;;;;;9.70;4.17;;;12.80;99.90;;;;;;5078645;28;20516;-65
2023/10/14 08:30:32;;;;;;;13.87;5.00;;;12.70;1.00;;;;;;5078931;28;20462;-65
2023/10/14 08:33:01;;;;;;;20.17;4.73;;;12.80;1.00;;;;;;5079106;28;20867;-68
2023/10/14 08:35:30;;;;;;;19.27;4.90;;;12.70;1.00;;;;;;5078419;28;20535;-67
2023/10/14 08:37:59;;;;;;;10.30;4.03;;;13.00;5.10;;;;;;5078471;28;20464;-65
2023/10/14 08:40:29;;;;;;;8.27;3.60;;;13.20;1.00;;;;;;5078734;28;20863;-68
2023/10/14 08:43:02;;;;;;;9.67;4.10;;;13.00;1.00;;;;;;5078680;28;20465;-67
2023/10/14 08:45:30;;;;;;;10.83;3.93;;;12.90;1.00;;;;;;5078218;28;20458;-67
2023/10/14 08:48:00;;;;;;;10.57;3.50;;;13.00;1.00;;;;;;5078253;28;20548;-64
2023/10/14 08:50:32;;;;;;;12.60;4.30;;;13.30;1.00;;;;;;5075915;28;20461;-66
2023/10/14 08:53:04;;;;;;;10.20;4.50;;;13.50;1.00;;;;;;5077547;28;20512;-64
2023/10/14 08:55:34;;;;;;;13.30;4.17;;;13.60;1.00;;;;;;5077916;28;20528;-64
2023/10/14 08:58:04;;;;;;;8.10;3.93;;;13.70;1.00;;;;;;5077929;28;20464;-65
2023/10/14 09:00:36;;;;;;;15.03;5.03;;;13.60;99.90;;;;;;5078079;28;20461;-65
2023/10/14 09:03:05;;;;;;;8.23;3.50;;;13.50;99.90;;;;;;5078325;28;20461;-64
2023/10/14 09:05:38;;;;;;;11.30;3.87;;;13.40;99.90;;;;;;5077562;28;20458;-65
2023/10/14 09:08:07;;;;;;;14.23;4.43;;;13.50;1.00;;;;;;5075561;28;20750;-64
2023/10/14 09:10:36;;;;;;;8.20;3.10;;;13.30;99.90;;;;;;5069828;28;20497;-64
2023/10/14 09:13:06;;;;;;;15.80;4.57;;;13.20;99.90;;;;;;5077532;28;20453;-64
2023/10/14 09:15:39;;;;;;;10.53;4.40;;;13.20;99.90;;;;;;5073987;28;20945;-64
2023/10/14 09:18:13;;;;;;;11.40;4.00;;;13.00;99.90;;;;;;5077562;28;20457;-64
2023/10/14 09:20:42;;;;;;;14.30;5.20;;;13.10;99.90;;;;;;5077836;28;20488;-63
2023/10/14 09:23:18;;;;;;;15.70;4.60;;;13.10;99.90;;;;;;5077776;28;20955;-64
2023/10/14 09:25:49;;;;;;;10.40;4.10;;;13.10;99.90;;;;;;5076333;28;20531;-63
2023/10/14 09:28:20;;;;;;;14.57;4.23;;;13.10;99.90;;;;;;5074343;28;20465;-64
2023/10/14 09:30:50;;;;;;;12.20;4.60;;;13.00;99.90;;;;;;5077722;28;20461;-62
2023/10/14 09:33:21;;;;;;;13.10;4.73;;;13.00;99.90;;;;;;5078116;28;20457;-64
2023/10/14 09:35:51;;;;;;;9.77;4.33;;;13.10;99.90;;;;;;5077585;28;20778;-64
2023/10/14 09:38:23;;;;;;;13.83;3.70;;;13.10;99.90;;;;;;5077680;28;20463;-65
2023/10/14 09:40:55;;;;;;;11.37;4.00;;;13.00;99.90;;;;;;5077787;28;20741;-62
2023/10/14 09:43:24;;;;;;;9.03;3.63;;;13.00;99.90;;;;;;5077893;28;20457;-62
2023/10/14 09:45:58;;;;;;;11.93;4.40;;;12.80;99.90;;;;;;5077362;28;20460;-61
2023/10/14 09:48:26;;;;;;;15.87;4.90;;;12.90;99.90;;;;;;5077579;28;20544;-62
2023/10/14 09:50:56;;;;;;;11.33;4.53;;;13.40;99.90;;;;;;5075619;28;20922;-62
2023/10/14 09:53:27;;;;;;;12.13;4.80;;;13.90;99.90;;;;;;5076836;28;20564;-60
2023/10/14 09:55:56;;;;;;;9.50;3.80;;;14.30;99.90;;;;;;5076611;28;20925;-61
2023/10/14 09:58:30;;;;;;;12.50;3.90;;;14.60;99.90;;;;;;5076784;28;20877;-61
2023/10/14 10:00:59;;;;;;;14.03;4.30;;;14.30;1.00;;;;;;5076637;28;20559;-61
2023/10/14 10:03:28;;;;;;;9.30;3.90;;;13.90;1.00;;;;;;5076793;28;20752;-61
2023/10/14 10:06:10;;;;;;;10.03;3.83;;;14.10;1.00;;;;;;5077031;28;20428;-60
2023/10/14 10:09:06;;;;;;;11.67;3.63;;;14.70;1.00;;;;;;5077341;28;20907;-61
2023/10/14 10:11:37;;;;;;;11.00;3.97;;;14.20;1.00;;;;;;5067598;28;20564;-61
2023/10/14 10:14:12;;;;;;;13.87;3.87;;;14.40;1.00;;;;;;5077130;28;20453;-61
2023/10/14 10:16:42;;;;;;;10.47;2.90;;;14.40;1.00;;;;;;5077351;28;20943;-62
2023/10/14 10:19:10;;;;;;;12.77;4.43;;;14.00;1.00;;;;;;5076863;28;20467;-62
2023/10/14 10:21:40;;;;;;;9.33;3.33;;;13.90;1.00;;;;;;5076654;28;20503;-63
2023/10/14 10:24:23;;;;;;;10.17;3.80;;;13.80;1.00;;;;;;5077056;28;20469;-61
2023/10/14 10:27:08;;;;;;;10.80;4.00;;;13.40;1.00;;;;;;5077078;28;20453;-61
2023/10/14 10:29:43;;;;;;;11.13;4.27;;;13.10;1.00;;;;;;5076520;28;20454;-62
2023/10/14 10:32:17;;;;;;;9.57;3.10;;;13.00;1.00;;;;;;5076977;28;20551;-61
2023/10/14 10:35:16;;;;;;;14.97;3.80;;;12.90;1.00;;;;;;5077251;28;20460;-62
2023/10/14 10:37:51;;;;;;;14.50;3.40;;;12.90;1.00;;;;;;5076088;28;20790;-61
2023/10/14 10:40:25;;;;;;;7.40;3.03;;;12.90;1.00;;;;;;5076045;28;20484;-61
2023/10/14 10:42:55;;;;;;;14.20;3.77;;;12.90;1.00;;;;;;5075665;28;20869;-63
2023/10/14 10:45:24;;;;;;;9.97;4.20;;;12.90;1.00;;;;;;5076081;28;20882;-61
2023/10/14 10:47:54;;;;;;;10.73;3.53;;;12.80;1.00;;;;;;5076660;28;20522;-61
2023/10/14 10:50:22;;;;;;;9.47;3.27;;;12.80;1.00;;;;;;5076648;28;20464;-61
2023/10/14 10:53:19;;;;;;;9.87;3.57;;;12.80;1.00;;;;;;5077252;28;20795;-62
2023/10/14 10:55:48;;;;;;;15.77;4.13;;;12.70;1.00;;;;;;5075565;28;20881;-61
2023/10/14 10:58:16;;;;;;;9.03;3.80;;;12.70;1.00;;;;;;5076686;28;20489;-62
2023/10/14 11:00:46;;;;;;;9.67;3.30;;;12.80;1.00;;;;;;5075592;28;20885;-61
2023/10/14 11:03:14;;;;;;;8.53;3.23;;;12.90;1.00;;;;;;5076549;28;20457;-61
2023/10/14 11:05:42;;;;;;;9.60;3.70;;;13.40;1.00;;;;;;5076152;28;20445;-61
2023/10/14 11:08:10;;;;;;;7.07;3.30;;;14.10;1.00;;;;;;5075937;28;20468;-61
2023/10/14 11:10:42;;;;;;;11.30;4.17;;;14.70;99.90;;;;;;5074981;28;20803;-61
2023/10/14 11:13:11;;;;;;;9.90;4.00;;;15.40;99.90;;;;;;5074154;28;20503;-61
2023/10/14 11:15:40;;;;;;;7.90;3.80;;;16.00;99.90;;;;;;5078837;28;20595;-60
2023/10/14 11:18:09;;;;;;;9.23;3.23;;;16.70;99.90;;;;;;5079704;28;20510;-62
2023/10/14 11:20:43;;;;;;;8.90;3.90;;;16.90;99.90;;;;;;5079320;28;20462;-62
2023/10/14 11:23:11;;;;;;;8.67;3.33;;;16.30;1.00;;;;;;5079762;28;20499;-60
2023/10/14 11:25:41;;;;;;;8.93;3.33;;;15.60;1.00;;;;;;5080203;28;20515;-60
2023/10/14 11:28:11;;;;;;;8.77;4.00;;;14.70;1.00;;;;;;5078523;28;20789;-61
2023/10/14 11:30:42;;;;;;;9.70;3.60;;;14.50;1.00;;;;;;5070806;28;20611;-60
2023/10/14 11:33:11;;;;;;;11.53;3.97;;;14.30;1.00;;;;;;5078185;28;20490;-60
2023/10/14 11:35:39;;;;;;;10.00;3.93;;;14.20;1.00;;;;;;5076104;28;20524;-60
2023/10/14 11:38:12;;;;;;;10.97;4.03;;;14.00;1.00;;;;;;5078864;28;20515;-60
2023/10/14 11:40:45;;;;;;;12.43;3.40;;;14.00;1.00;;;;;;5079194;28;20519;-59
2023/10/14 11:43:14;;;;;;;10.13;3.67;;;13.70;1.00;;;;;;5079317;28;20463;-60
2023/10/14 11:45:43;;;;;;;11.53;3.80;;;13.60;1.00;;;;;;5077705;28;20522;-59
2023/10/14 11:48:22;;;;;;;8.67;3.40;;;14.20;1.00;;;;;;5078918;28;20969;-59
2023/10/14 11:50:53;;;;;;;7.77;3.07;;;15.00;1.00;;;;;;5080057;28;20452;-60
2023/10/14 11:53:27;;;;;;;6.00;3.50;;;15.60;1.00;;;;;;5079447;28;20507;-61
2023/10/14 11:55:59;;;;;;;7.60;2.80;;;16.20;1.00;;;;;;5077977;28;20667;-60
2023/10/14 11:58:27;;;;;;;10.43;4.10;;;16.10;1.00;;;;;;5079557;28;20457;-60
2023/10/14 12:00:55;;;;;;;10.27;3.93;;;16.20;1.00;;;;;;5071251;28;20473;-61
2023/10/14 12:03:25;;;;;;;11.13;4.50;;;16.30;1.00;;;;;;5079808;28;20489;-62
2023/10/14 12:05:57;;;;;;;7.40;3.13;;;16.40;1.00;;;;;;5078486;28;20882;-59
2023/10/14 12:08:25;;;;;;;9.37;3.37;;;16.30;1.00;;;;;;5079418;28;20491;-60
2023/10/14 12:10:53;;;;;;;11.60;3.97;;;16.50;99.90;;;;;;5078999;28;20453;-59
2023/10/14 12:13:23;;;;;;;8.90;3.30;;;16.60;99.90;;;;;;5077481;28;20902;-59
2023/10/14 12:15:51;;;;;;;8.27;3.63;;;17.30;99.90;;;;;;5077349;28;20507;-59
2023/10/14 12:18:20;;;;;;;9.10;3.40;;;17.10;99.90;;;;;;5076271;28;20916;-60
2023/10/14 12:20:48;;;;;;;6.57;3.00;;;17.40;99.90;;;;;;5077476;28;20531;-60
2023/10/14 12:23:18;;;;;;;8.67;3.33;;;16.50;99.90;;;;;;5079222;28;20461;-60
2023/10/14 12:25:46;;;;;;;8.50;3.50;;;16.20;99.90;;;;;;5078558;28;20488;-61
2023/10/14 12:28:17;;;;;;;5.00;3.30;;;16.50;1.00;;;;;;5078878;28;20886;-60
2023/10/14 12:30:46;;;;;;;7.83;2.93;;;16.40;1.00;;;;;;5079181;28;20461;-61
2023/10/14 12:33:20;;;;;;;6.50;2.60;;;16.70;1.00;;;;;;5078923;28;20457;-63
2023/10/14 12:35:51;;;;;;;6.20;3.10;;;17.00;1.00;;;;;;5078266;28;20539;-60
2023/10/14 12:38:20;;;;;;;6.13;3.10;;;17.00;1.00;;;;;;5078547;28;20512;-61
2023/10/14 12:40:48;;;;;;;9.83;3.40;;;16.30;71.20;;;;;;5078731;28;20491;-61
2023/10/14 12:43:18;;;;;;;8.53;3.57;;;15.60;99.90;;;;;;5078849;28;20454;-59
2023/10/14 12:45:51;;;;;;;11.97;3.70;;;15.20;1.00;;;;;;5078654;28;20485;-60
2023/10/14 12:48:24;;;;;;;10.43;4.07;;;15.10;1.00;;;;;;5078782;28;20804;-61
2023/10/14 12:50:51;;;;;;;10.93;3.23;;;15.20;1.00;;;;;;5078512;28;20473;-60
2023/10/14 12:53:19;;;;;;;6.07;3.03;;;15.60;1.00;;;;;;5078470;28;20488;-60
2023/10/14 12:55:46;;;;;;;7.83;2.80;;;16.20;1.00;;;;;;5078148;28;20871;-61
2023/10/14 12:58:15;;;;;;;6.30;2.97;;;16.30;1.00;;;;;;5078317;28;20815;-61
2023/10/14 13:00:43;;;;;;;5.50;3.30;;;16.40;1.00;;;;;;5078463;28;20501;-60
2023/10/14 13:03:12;;;;;;;9.27;3.47;;;16.90;99.90;;;;;;5078472;28;20552;-60
2023/10/14 13:05:46;;;;;;;6.63;2.87;;;17.20;99.90;;;;;;5078007;28;20510;-63